ADDS METAR Data INFO
IDs: Format: Raw Decoded Include TAF

Data at: 1518 UTC 23 Oct 2017

KOLZ 231515Z AUTO 23009KT 10SM FEW120 10/08 A2984 RMK AO2
KOLZ 231455Z AUTO 18008KT 10SM BKN120 09/07 A2984 RMK AO2
KOLZ 231435Z AUTO 18008KT 10SM SCT110 09/07 A2985 RMK AO2
KOLZ 231415Z AUTO 17010KT 10SM FEW110 FEW160 08/07 A2986 RMK AO2
KOLZ 231355Z AUTO 16009KT 10SM FEW110 BKN160 07/07 A2986 RMK AO2
KOLZ 231335Z AUTO 15009KT 10SM OVC160 07/06 A2986 RMK AO2
KOLZ 231315Z AUTO 16009KT 10SM SCT160 06/06 A2987 RMK AO2
KOLZ 231255Z AUTO 19007KT 10SM SCT160 07/06 A2985 RMK AO2
KOLZ 231235Z AUTO 18008KT 10SM OVC160 06/06 A2985 RMK AO2
KOLZ 231215Z AUTO 17007KT 10SM SCT160 06/05 A2987 RMK AO2
KOLZ 231155Z AUTO 16007KT 10SM FEW160 05/05 A2988 RMK AO2
KOLZ 231135Z AUTO 17006KT 10SM CLR 05/05 A2988 RMK AO2
KOLZ 231115Z AUTO 18006KT 10SM CLR 06/05 A2989 RMK AO2
KOLZ 231055Z AUTO 16007KT 10SM CLR 06/06 A2989 RMK AO2
KOLZ 231035Z AUTO 17007KT 10SM CLR 06/06 A2991 RMK AO2
KOLZ 231015Z AUTO 16007KT 10SM CLR 06/06 A2992 RMK AO2
KOLZ 230955Z AUTO 16009KT 10SM CLR 06/05 A2992 RMK AO2
KOLZ 230935Z AUTO 15008KT 10SM CLR 05/05 A2993 RMK AO2
KOLZ 230915Z AUTO 16007KT 10SM CLR 06/05 A2994 RMK AO2
KOLZ 230855Z AUTO 17006KT 10SM CLR 06/06 A2995 RMK AO2
KOLZ 230835Z AUTO 16007KT 10SM CLR 05/05 A2995 RMK AO2
KOLZ 230815Z AUTO 16007KT 10SM CLR 06/06 A2996 RMK AO2
KOLZ 230755Z AUTO 16008KT 10SM CLR 05/05 A2996 RMK AO2
KOLZ 230735Z AUTO 16007KT 10SM CLR 05/05 A2997 RMK AO2
KOLZ 230715Z AUTO 16006KT 10SM CLR 05/05 A2998 RMK AO2
KOLZ 230655Z AUTO 16005KT 10SM CLR 05/05 A2998 RMK AO2
KOLZ 230635Z AUTO 16006KT 10SM CLR 06/06 A2999 RMK AO2
KOLZ 230615Z AUTO 16007KT 10SM CLR 06/06 A2999 RMK AO2
KOLZ 230555Z AUTO 16007KT 10SM CLR 06/06 A2999 RMK AO2
KOLZ 230535Z AUTO 16006KT 10SM CLR 06/06 A3000 RMK AO2
KOLZ 230515Z AUTO 15006KT 10SM CLR 06/06 A3001 RMK AO2
KOLZ 230455Z AUTO 16006KT 10SM CLR 06/06 A3002 RMK AO2
KOLZ 230435Z AUTO 16006KT 10SM CLR 06/06 A3002 RMK AO2
KOLZ 230415Z AUTO 17004KT 10SM CLR 07/07 A3003 RMK AO2
KOLZ 230355Z AUTO 17005KT 10SM CLR 07/07 A3003 RMK AO2
KOLZ 230335Z AUTO 17007KT 10SM CLR 07/07 A3004 RMK AO2
KOLZ 230315Z AUTO 16006KT 10SM CLR 07/07 A3004 RMK AO2
KOLZ 230255Z AUTO 18005KT 10SM CLR 07/07 A3004 RMK AO2
KOLZ 230235Z AUTO 17006KT 10SM CLR 07/07 A3004 RMK AO2
KOLZ 230215Z AUTO 17006KT 10SM CLR 07/07 A3004 RMK AO2
KOLZ 230155Z AUTO 16006KT 10SM CLR 08/08 A3004 RMK AO2
KOLZ 230135Z AUTO 16007KT 10SM CLR 08/08 A3004 RMK AO2
KOLZ 230115Z AUTO 15007KT 10SM CLR 08/08 A3005 RMK AO2
KOLZ 230055Z AUTO 16007KT 10SM CLR 09/08 A3005 RMK AO2
KOLZ 230035Z AUTO 16006KT 10SM CLR 09/08 A3005 RMK AO2
KOLZ 230015Z AUTO 16007KT 10SM CLR 09/08 A3005 RMK AO2
KOLZ 222355Z AUTO 15006KT 10SM CLR 10/09 A3005 RMK AO2
KOLZ 222335Z AUTO 16007KT 10SM CLR 11/09 A3005 RMK AO2
KOLZ 222315Z AUTO 15006KT 10SM CLR 11/09 A3005 RMK AO2
KOLZ 222255Z AUTO 16006KT 10SM CLR 12/09 A3005 RMK AO2
KOLZ 222235Z AUTO 16005KT 10SM CLR 13/09 A3004 RMK AO2
KOLZ 222215Z AUTO 15003KT 10SM CLR 13/09 A3004 RMK AO2
KOLZ 222155Z AUTO 00000KT 10SM CLR 13/08 A3004 RMK AO2
KOLZ 222135Z AUTO 00000KT 10SM CLR 14/08 A3004 RMK AO2
KOLZ 222115Z AUTO 00000KT 10SM CLR 14/08 A3004 RMK AO2
KOLZ 222055Z AUTO 00000KT 10SM CLR 14/07 A3004 RMK AO2
KOLZ 222035Z AUTO 00000KT 10SM CLR 13/07 A3004 RMK AO2
KOLZ 222015Z AUTO 29005KT 10SM CLR 13/08 A3004 RMK AO2
KOLZ 221955Z AUTO 31007KT 10SM CLR 13/08 A3005 RMK AO2
KOLZ 221935Z AUTO 29006KT 10SM CLR 12/08 A3005 RMK AO2
KOLZ 221915Z AUTO 30006KT 10SM CLR 12/08 A3005 RMK AO2
KOLZ 221855Z AUTO 30006KT 10SM CLR 12/08 A3005 RMK AO2
KOLZ 221835Z AUTO 31005KT 10SM CLR 11/09 A3004 RMK AO2
KOLZ 221815Z AUTO 31008KT 10SM CLR 11/09 A3005 RMK AO2
KOLZ 221755Z AUTO 31008KT 10SM CLR 11/09 A3004 RMK AO2
KOLZ 221735Z AUTO 31009KT 10SM CLR 11/09 A3004 RMK AO2
KOLZ 221715Z AUTO 31007KT 10SM CLR 11/09 A3004 RMK AO2
KOLZ 221655Z AUTO 31007KT 10SM CLR 11/09 A3004 RMK AO2
KOLZ 221635Z AUTO 31005KT 10SM CLR 11/09 A3004 RMK AO2
KOLZ 221615Z AUTO 32005KT 10SM FEW100 11/09 A3004 RMK AO2
KOLZ 221555Z AUTO 31006KT 10SM FEW100 11/09 A3005 RMK AO2
KOLZ 221535Z AUTO 30007KT 10SM CLR 11/10 A3004 RMK AO2
KOLZ 221515Z AUTO 30006KT 10SM FEW075 SCT085 10/10 A3003 RMK AO2
KOLZ 221455Z AUTO 33006KT 10SM BKN070 10/09 A3001 RMK AO2
KOLZ 221435Z AUTO 32006KT 10SM BKN070 10/09 A3001 RMK AO2
KOLZ 221415Z AUTO 29007KT 10SM OVC065 10/10 A3001 RMK AO2
KOLZ 221355Z AUTO 31008KT 10SM OVC060 10/10 A3000 RMK AO2
KOLZ 221335Z AUTO 31005KT 10SM FEW050 OVC060 10/10 A2999 RMK AO2
KOLZ 221315Z AUTO 31007KT 10SM FEW050 BKN060 OVC095 10/10 A2999 RMK AO2
KOLZ 221255Z AUTO 30008KT 10SM BKN060 OVC070 10/10 A2999 RMK AO2
KOLZ 221235Z AUTO 31007KT 10/10 A2997 RMK AO2
KOLZ 221215Z AUTO 31008KT 10SM SCT065 BKN075 OVC100 10/10 A2996 RMK AO2
KOLZ 221155Z AUTO 30006KT 10SM FEW043 BKN075 OVC100 10/10 A2996 RMK AO2
KOLZ 221135Z AUTO 31006KT 10SM FEW042 BKN055 OVC100 10/10 A2996 RMK AO2
KOLZ 221115Z AUTO 30006KT 10SM SCT038 BKN065 OVC100 10/10 A2997 RMK AO2
KOLZ 221055Z AUTO 30007KT 10SM SCT036 BKN055 OVC070 10/10 A2996 RMK AO2 P0003
KOLZ 221035Z AUTO 29004KT 9SM FEW042 BKN055 OVC070 10/10 A2997 RMK AO2
KOLZ 221015Z AUTO 32005KT 9SM FEW036 BKN047 OVC070 10/10 A2995 RMK AO2
KOLZ 220955Z AUTO 30007KT 8SM -RA SCT030 BKN035 OVC060 10/10 A2995 RMK AO2 P0005
KOLZ 220935Z AUTO 29004KT 7SM -RA BKN030 BKN036 OVC060 10/10 A2995 RMK AO2
KOLZ 220915Z AUTO 30005KT 8SM -RA FEW030 SCT038 BKN055 10/10 A2994 RMK AO2
KOLZ 220855Z AUTO 33005KT 10SM FEW055 SCT070 BKN080 10/10 A2994 RMK AO2 P0002
KOLZ 220835Z AUTO 33007KT 10SM -RA SCT049 BKN070 OVC095 11/10 A2992 RMK AO2
KOLZ 220815Z AUTO 32010G15KT 9SM -RA OVC048 11/10 A2992 RMK AO2
KOLZ 220755Z AUTO 31011KT 9SM -RA FEW027 BKN047 OVC075 11/10 A2993 RMK AO2 P0003
KOLZ 220735Z AUTO 31012KT 6SM -RA SCT029 SCT049 OVC075 11/10 A2992 RMK AO2
KOLZ 220715Z AUTO 31011KT 8SM -RA FEW029 SCT045 BKN075 11/11 A2991 RMK AO2
KOLZ 220655Z AUTO 32014KT 9SM -RA FEW031 SCT038 OVC045 11/10 A2991 RMK AO2 P0003
KOLZ 220635Z AUTO 33010G17KT 8SM -RA BKN030 OVC036 12/11 A2991 RMK AO2
KOLZ 220615Z AUTO 31009KT 6SM -RA OVC028 12/12 A2992 RMK AO2
KOLZ 220555Z AUTO 29010KT 10SM BKN022 OVC026 13/12 A2992 RMK AO2
KOLZ 220535Z AUTO 31014G19KT 10SM SCT007 SCT013 OVC020 13/13 A2987 RMK AO2
KOLZ 220515Z AUTO 32014G19KT 10SM BKN006 OVC009 14/13 A2986 RMK AO2
KOLZ 220455Z AUTO 29019KT 9SM -RA OVC005 14/14 A2987 RMK AO2 P0010
KOLZ 220435Z AUTO 20010KT 7SM -RA SCT007 BKN019 OVC030 15/15 A2988 RMK AO2
KOLZ 220415Z AUTO 21009KT 5SM -RA FEW008 BKN018 OVC031 15/15 A2987 RMK AO2
KOLZ 220355Z AUTO 22012KT 6SM -RA SCT030 BKN037 OVC075 15/15 A2985 RMK AO2 P0024
KOLZ 220335Z AUTO 20012G22KT 6SM BR BKN032 BKN044 OVC075 15/15 A2986 RMK AO2